createdAt,value
2023-01-21T00:01:53.145Z,1.33
2023-01-21T00:04:23.483Z,0.60
2023-01-21T00:06:53.498Z,2.17
2023-01-21T00:09:21.087Z,1.40
2023-01-21T00:11:49.799Z,1.38
2023-01-21T00:14:22.102Z,0.97
2023-01-21T00:16:53.725Z,0.30
2023-01-21T00:19:21.353Z,1.30
2023-01-21T00:21:48.910Z,2.85
2023-01-21T00:24:25.158Z,1.55
2023-01-21T00:26:57.252Z,2.00
2023-01-21T00:29:29.126Z,1.98
2023-01-21T00:32:03.424Z,8.85
2023-01-21T00:34:31.837Z,1.40
2023-01-21T00:36:59.344Z,1.95
2023-01-21T00:39:27.238Z,4.17
2023-01-21T00:42:03.147Z,7.15
2023-01-21T00:44:34.029Z,2.05
2023-01-21T00:47:10.953Z,2.03
2023-01-21T00:49:50.436Z,1.08
2023-01-21T00:52:18.451Z,1.47
2023-01-21T00:54:55.919Z,0.80
2023-01-21T00:57:28.964Z,2.17
2023-01-21T00:59:57.066Z,0.52
2023-01-21T01:02:27.338Z,1.15
2023-01-21T01:05:14.111Z,0.83
2023-01-21T01:07:56.994Z,1.75
2023-01-21T01:10:24.852Z,2.50
2023-01-21T01:12:53.165Z,3.53
2023-01-21T01:15:23.870Z,2.47
2023-01-21T01:17:51.591Z,2.23
2023-01-21T01:20:19.335Z,0.65
2023-01-21T01:22:47.041Z,2.42
2023-01-21T01:25:14.824Z,1.90
2023-01-21T01:27:43.375Z,1.70
2023-01-21T01:30:11.584Z,1.07
2023-01-21T01:32:42.076Z,2.60
2023-01-21T01:35:13.605Z,1.55
2023-01-21T01:37:41.318Z,1.23
2023-01-21T01:40:10.943Z,1.85
2023-01-21T01:42:38.621Z,2.47
2023-01-21T01:45:16.403Z,1.05
2023-01-21T01:48:13.655Z,2.03
2023-01-21T01:50:44.430Z,1.38
2023-01-21T01:53:16.154Z,2.53
2023-01-21T01:55:45.749Z,0.90
2023-01-21T01:58:16.081Z,1.60
2023-01-21T02:00:43.875Z,0.93
2023-01-21T02:03:30.362Z,1.23
2023-01-21T02:05:58.145Z,2.53
2023-01-21T02:08:27.041Z,3.00
2023-01-21T02:10:56.916Z,2.45
2023-01-21T02:13:27.501Z,0.57
2023-01-21T02:16:09.667Z,2.05
2023-01-21T02:18:42.431Z,0.73
2023-01-21T02:21:43.812Z,0.70
2023-01-21T02:24:59.675Z,3.00
2023-01-21T02:27:54.782Z,2.25
2023-01-21T02:31:07.946Z,3.17
2023-01-21T02:33:54.792Z,2.67
2023-01-21T02:36:58.220Z,2.83
2023-01-21T02:40:03.118Z,0.82
2023-01-21T02:42:47.777Z,0.68
2023-01-21T02:45:24.692Z,1.60
2023-01-21T02:48:06.282Z,1.92
2023-01-21T02:50:41.729Z,3.70
2023-01-21T02:53:30.848Z,3.10
2023-01-21T02:56:09.212Z,1.15
2023-01-21T02:58:44.875Z,2.15
2023-01-21T03:01:42.363Z,0.82
2023-01-21T03:04:34.116Z,1.07
2023-01-21T03:07:27.516Z,1.70
2023-01-21T03:10:18.327Z,0.43
2023-01-21T03:13:01.184Z,1.05
2023-01-21T03:15:54.658Z,1.50
2023-01-21T03:18:33.355Z,0.70
2023-01-21T03:21:12.258Z,0.65
2023-01-21T03:23:44.506Z,0.63
2023-01-21T03:26:17.104Z,1.10
2023-01-21T03:28:52.464Z,0.63
2023-01-21T03:31:28.877Z,1.37
2023-01-21T03:34:02.214Z,1.63
2023-01-21T03:36:51.182Z,1.40
2023-01-21T03:39:55.395Z,1.70
2023-01-21T03:42:25.614Z,1.85
2023-01-21T03:44:56.230Z,0.80
2023-01-21T03:47:37.808Z,0.40
2023-01-21T03:50:15.584Z,0.88
2023-01-21T03:52:44.843Z,0.52
2023-01-21T03:55:14.270Z,1.75
2023-01-21T03:57:42.028Z,1.37
2023-01-21T04:00:14.884Z,1.27
2023-01-21T04:02:43.852Z,3.15
2023-01-21T04:05:38.555Z,1.65
2023-01-21T04:08:06.536Z,1.73
2023-01-21T04:10:34.145Z,3.97
2023-01-21T04:13:01.923Z,1.75
2023-01-21T04:15:29.744Z,1.85
2023-01-21T04:17:58.645Z,1.20
2023-01-21T04:20:26.710Z,0.93
2023-01-21T04:22:57.650Z,3.10
2023-01-21T04:25:26.580Z,1.88
2023-01-21T04:27:54.352Z,2.80
2023-01-21T04:30:25.054Z,3.63
2023-01-21T04:32:52.908Z,1.15
2023-01-21T04:35:20.675Z,1.70
2023-01-21T04:37:48.628Z,2.88
2023-01-21T04:40:20.945Z,3.38
2023-01-21T04:42:50.207Z,1.73
2023-01-21T04:45:17.897Z,3.38
2023-01-21T04:47:46.198Z,3.33
2023-01-21T04:50:18.066Z,2.55
2023-01-21T04:52:48.897Z,2.22
2023-01-21T04:55:16.848Z,3.15
2023-01-21T04:57:44.722Z,3.35
2023-01-21T05:00:12.953Z,3.33
2023-01-21T05:02:41.411Z,1.38
2023-01-21T05:05:13.794Z,1.85
2023-01-21T05:07:41.510Z,2.97
2023-01-21T05:10:15.406Z,4.18
2023-01-21T05:12:43.476Z,1.90
2023-01-21T05:15:12.028Z,2.30
2023-01-21T05:17:40.782Z,2.40
2023-01-21T05:20:18.510Z,4.50
2023-01-21T05:22:52.368Z,3.00
2023-01-21T05:25:20.247Z,5.27
2023-01-21T05:27:52.442Z,3.33
2023-01-21T05:30:24.342Z,2.47
2023-01-21T05:32:56.430Z,3.75
2023-01-21T05:35:26.969Z,4.10
2023-01-21T05:37:54.818Z,2.33
2023-01-21T05:40:22.556Z,4.72
2023-01-21T05:42:52.790Z,3.75
2023-01-21T05:45:20.478Z,4.15
2023-01-21T05:47:50.563Z,3.58
2023-01-21T05:50:18.738Z,2.50
2023-01-21T05:52:49.620Z,4.18
2023-01-21T05:55:17.585Z,5.07
2023-01-21T05:57:45.329Z,5.13
2023-01-21T06:00:16.846Z,5.80
2023-01-21T06:02:44.727Z,9.13
2023-01-21T06:05:15.964Z,10.27
2023-01-21T06:07:43.708Z,6.30
2023-01-21T06:10:11.682Z,9.13
2023-01-21T06:12:39.300Z,9.02
2023-01-21T06:15:07.387Z,7.37
2023-01-21T06:17:38.437Z,9.55
2023-01-21T06:20:09.428Z,7.75
2023-01-21T06:22:39.650Z,7.35
2023-01-21T06:25:07.460Z,6.53
2023-01-21T06:27:37.437Z,6.40
2023-01-21T06:30:11.564Z,6.75
2023-01-21T06:32:39.246Z,6.63
2023-01-21T06:35:08.280Z,8.63
2023-01-21T06:37:47.221Z,6.63
2023-01-21T06:40:17.899Z,7.80
2023-01-21T06:42:50.511Z,7.28
2023-01-21T06:45:20.838Z,9.38
2023-01-21T06:48:25.512Z,5.40
2023-01-21T06:50:58.981Z,8.07
2023-01-21T06:53:31.551Z,6.17
2023-01-21T06:55:59.297Z,8.02
2023-01-21T06:58:28.655Z,10.88
2023-01-21T07:00:59.010Z,9.70
2023-01-21T07:03:30.322Z,7.68
2023-01-21T07:05:58.203Z,9.33
2023-01-21T07:08:26.954Z,7.45
2023-01-21T07:10:55.352Z,8.60
2023-01-21T07:13:25.503Z,6.93
2023-01-21T07:15:53.230Z,10.38
2023-01-21T07:18:21.047Z,11.00
2023-01-21T07:20:50.882Z,10.18
2023-01-21T07:23:18.510Z,9.70
2023-01-21T07:28:36.489Z,8.70
2023-01-21T07:31:06.743Z,5.80
2023-01-21T07:33:34.554Z,8.90
2023-01-21T07:36:04.711Z,8.35
2023-01-21T07:38:32.501Z,9.63
2023-01-21T07:41:00.226Z,7.40
2023-01-21T07:43:28.545Z,7.67
2023-01-21T07:46:07.450Z,9.38
2023-01-21T07:48:35.399Z,8.43
2023-01-21T07:51:04.404Z,7.53
2023-01-21T07:53:37.080Z,8.48
2023-01-21T07:56:10.539Z,7.23
2023-01-21T07:58:43.127Z,6.80
2023-01-21T08:01:16.672Z,9.07
2023-01-21T08:03:46.831Z,8.75
2023-01-21T08:06:17.647Z,8.15
2023-01-21T08:08:45.319Z,5.37
2023-01-21T08:11:14.227Z,9.05
2023-01-21T08:13:41.855Z,6.43
2023-01-21T08:16:13.819Z,7.60
2023-01-21T08:18:45.072Z,8.70
2023-01-21T08:21:12.731Z,8.57
2023-01-21T08:23:42.531Z,13.15
2023-01-21T08:26:19.177Z,7.57
2023-01-21T08:28:47.084Z,7.25
2023-01-21T08:31:14.793Z,11.23
2023-01-21T08:33:43.059Z,9.70
2023-01-21T08:36:10.766Z,9.30
2023-01-21T08:38:38.528Z,6.78
2023-01-21T08:41:06.253Z,8.63
2023-01-21T08:43:34.805Z,8.70
2023-01-21T08:46:04.926Z,6.73
2023-01-21T08:48:35.289Z,6.63
2023-01-21T08:51:05.258Z,5.72
2023-01-21T08:53:33.086Z,5.60
2023-01-21T08:56:02.235Z,11.00
2023-01-21T08:58:30.875Z,10.00
2023-01-21T09:00:59.006Z,6.60
2023-01-21T09:03:29.457Z,4.70
2023-01-21T09:06:15.345Z,6.78
2023-01-21T09:09:07.775Z,9.95
2023-01-21T09:11:56.310Z,5.10
2023-01-21T09:18:53.899Z,8.43
2023-01-21T09:21:24.111Z,7.32
2023-01-21T09:23:58.325Z,5.15
2023-01-21T09:26:45.663Z,7.03
2023-01-21T10:32:43.375Z,6.20
2023-01-21T10:35:41.771Z,6.93
2023-01-21T10:39:22.279Z,7.13
2023-01-21T10:45:50.063Z,6.63
2023-01-21T10:48:59.890Z,6.13
2023-01-21T11:01:09.021Z,7.18
2023-01-21T11:04:14.521Z,4.85
2023-01-21T11:06:50.442Z,7.03
2023-01-21T11:09:22.914Z,5.80
2023-01-21T11:11:56.716Z,6.50
2023-01-21T11:14:31.350Z,4.97
2023-01-21T11:17:03.494Z,4.57
2023-01-21T11:19:44.596Z,6.13
2023-01-21T11:22:39.186Z,8.07
2023-01-21T11:25:50.997Z,5.28
2023-01-21T11:31:49.642Z,5.32
2023-01-21T11:34:57.899Z,5.43
2023-01-21T11:38:09.415Z,4.93
2023-01-21T11:41:30.474Z,3.47
2023-01-21T12:51:22.218Z,8.97
2023-01-21T13:27:36.064Z,8.87
2023-01-21T13:30:35.331Z,7.63
2023-01-21T13:33:27.687Z,6.03
2023-01-21T13:43:30.284Z,11.10
2023-01-21T13:47:45.408Z,10.57
2023-01-21T15:51:55.588Z,7.68
2023-01-21T15:54:50.670Z,7.75
2023-01-21T15:57:46.066Z,7.40
2023-01-21T16:00:19.375Z,11.17
2023-01-21T16:02:50.047Z,7.78
2023-01-21T16:05:25.193Z,8.05
2023-01-21T16:08:02.640Z,8.85
2023-01-21T16:10:36.410Z,7.95
2023-01-21T16:13:43.795Z,7.93
2023-01-21T16:16:24.884Z,9.27
2023-01-21T16:18:59.396Z,8.68
2023-01-21T16:21:35.905Z,8.18
2023-01-21T16:24:11.910Z,8.85
2023-01-21T16:26:39.655Z,8.83
2023-01-21T16:29:13.455Z,8.87
2023-01-21T16:31:52.822Z,7.57
2023-01-21T16:34:33.479Z,8.65
2023-01-21T16:37:16.981Z,12.02
2023-01-21T16:39:57.398Z,5.82
2023-01-21T16:42:39.363Z,11.87
2023-01-21T16:45:24.818Z,7.85
2023-01-21T16:48:20.703Z,9.23
2023-01-21T16:50:55.720Z,11.00
2023-01-21T16:53:34.816Z,8.00
2023-01-21T16:56:36.763Z,15.07
2023-01-21T16:59:21.871Z,10.50
2023-01-21T17:01:56.933Z,11.15
2023-01-21T17:04:29.437Z,9.32
2023-01-21T17:07:06.132Z,7.95
2023-01-21T17:09:42.927Z,12.03
2023-01-21T17:12:24.163Z,10.50
2023-01-21T17:15:32.074Z,11.80
2023-01-21T17:18:38.574Z,10.13
2023-01-21T17:26:25.480Z,12.13
2023-01-21T17:29:31.322Z,6.85
2023-01-21T17:35:31.518Z,8.23
2023-01-21T17:38:15.621Z,8.23
2023-01-21T17:41:04.071Z,11.50
2023-01-21T17:43:55.396Z,8.95
2023-01-21T17:46:25.490Z,10.32
2023-01-21T17:49:12.750Z,12.90
2023-01-21T17:51:45.778Z,13.18
2023-01-21T17:54:23.881Z,8.30
2023-01-21T18:00:00.057Z,11.20
2023-01-21T18:06:09.936Z,7.47
2023-01-21T18:11:29.361Z,6.40
2023-01-21T18:14:08.568Z,6.82
2023-01-21T18:16:56.287Z,6.72
2023-01-21T18:19:39.778Z,5.15
2023-01-21T18:23:04.331Z,8.07
2023-01-21T18:25:36.566Z,6.77
2023-01-21T18:28:12.016Z,6.25
2023-01-21T18:30:44.466Z,5.45
2023-01-21T18:33:36.024Z,9.10
2023-01-21T18:36:05.664Z,11.23
2023-01-21T18:38:40.578Z,4.87
2023-01-21T18:41:09.246Z,6.85
2023-01-21T18:43:44.758Z,7.25
2023-01-21T18:46:16.800Z,7.28
2023-01-21T18:48:49.747Z,6.60
2023-01-21T18:51:17.560Z,5.87
2023-01-21T18:53:56.521Z,6.35
2023-01-21T18:56:30.193Z,6.97
2023-01-21T18:59:11.633Z,8.55
2023-01-21T19:01:50.196Z,7.15
2023-01-21T19:04:25.374Z,6.13
2023-01-21T19:06:56.874Z,5.97
2023-01-21T19:09:28.199Z,5.05
2023-01-21T19:12:03.270Z,5.18
2023-01-21T19:17:32.910Z,5.17
2023-01-21T19:20:18.982Z,5.13
2023-01-21T19:23:01.850Z,6.50
2023-01-21T19:25:29.547Z,4.60
2023-01-21T19:27:57.450Z,5.55
2023-01-21T19:30:34.591Z,4.70
2023-01-21T19:33:04.253Z,4.53
2023-01-21T19:35:40.490Z,4.70
2023-01-21T19:38:18.975Z,5.40
2023-01-21T19:40:47.034Z,9.15
2023-01-21T19:43:23.376Z,7.43
2023-01-21T19:45:52.945Z,6.43
2023-01-21T19:48:27.883Z,4.30
2023-01-21T19:50:55.693Z,8.38
2023-01-21T19:53:25.734Z,4.20
2023-01-21T19:55:53.371Z,5.57
2023-01-21T19:58:24.101Z,4.95
2023-01-21T20:00:53.782Z,7.18
2023-01-21T20:39:04.425Z,6.57
2023-01-21T20:41:32.655Z,4.63
2023-01-21T20:44:06.393Z,5.30
2023-01-21T20:46:45.890Z,6.40
2023-01-21T20:49:17.754Z,4.50
2023-01-21T20:57:20.147Z,6.10
2023-01-21T20:59:51.869Z,5.10
2023-01-21T21:02:34.839Z,5.40
2023-01-21T21:05:19.290Z,5.10
2023-01-21T21:07:59.556Z,6.20
2023-01-21T21:10:40.115Z,7.95
2023-01-21T21:13:14.784Z,3.97
2023-01-21T21:16:08.222Z,4.22
2023-01-21T21:18:42.489Z,5.88
2023-01-21T21:23:58.573Z,7.05
2023-01-21T21:26:35.732Z,3.97
2023-01-21T21:29:12.530Z,4.25
2023-01-21T21:31:43.279Z,4.78
2023-01-21T21:43:10.993Z,4.97
2023-01-21T21:46:14.581Z,4.20
2023-01-21T21:48:53.880Z,5.73
2023-01-21T21:51:24.595Z,5.57
2023-01-21T21:56:48.439Z,4.35
2023-01-21T21:59:29.945Z,5.18
2023-01-21T22:02:01.068Z,5.03
2023-01-21T22:04:28.876Z,4.78
2023-01-21T22:07:02.636Z,6.07
2023-01-21T22:09:42.677Z,7.07
2023-01-21T22:12:10.327Z,4.97
2023-01-21T22:14:43.271Z,6.03
2023-01-21T22:20:00.444Z,3.38
2023-01-21T22:22:31.275Z,5.68
2023-01-21T22:25:04.937Z,6.78
2023-01-21T22:27:36.944Z,5.07
2023-01-21T22:30:05.246Z,2.53
2023-01-21T22:32:33.144Z,6.20
2023-01-21T22:35:02.434Z,6.05
2023-01-21T22:37:32.972Z,5.55
2023-01-21T22:40:06.801Z,4.87
2023-01-21T22:42:34.831Z,6.65
2023-01-21T22:45:02.725Z,3.60
2023-01-21T22:47:35.163Z,4.13
2023-01-21T22:50:02.965Z,3.00
2023-01-21T22:52:30.884Z,4.10
2023-01-21T22:55:12.459Z,1.95
2023-01-21T22:57:43.642Z,2.78
2023-01-21T23:00:18.067Z,3.63
2023-01-21T23:02:45.796Z,3.60
2023-01-21T23:05:13.458Z,5.10
2023-01-21T23:07:45.117Z,3.85
2023-01-21T23:10:12.889Z,2.45
2023-01-21T23:12:43.398Z,2.33
2023-01-21T23:15:30.644Z,2.67
2023-01-21T23:18:17.497Z,1.53
2023-01-21T23:20:48.722Z,2.95
2023-01-21T23:23:17.360Z,3.95
2023-01-21T23:26:03.726Z,2.50
2023-01-21T23:28:41.739Z,3.65
2023-01-21T23:31:14.941Z,2.73
2023-01-21T23:33:48.907Z,5.80
2023-01-21T23:39:25.675Z,6.75
2023-01-21T23:44:44.329Z,6.10
2023-01-21T23:47:27.570Z,4.90
2023-01-21T23:49:59.756Z,5.70
2023-01-21T23:52:54.415Z,3.42
2023-01-21T23:55:38.398Z,3.45
2023-01-21T23:58:20.673Z,4.90
